createdAt,value
2023-04-30T00:02:32.971Z,13.20
2023-04-30T00:07:38.422Z,13.18
2023-04-30T00:12:43.725Z,13.63
2023-04-30T00:17:49.244Z,10.93
2023-04-30T00:22:54.714Z,13.00
2023-04-30T00:28:00.312Z,12.68
2023-04-30T00:33:14.535Z,15.85
2023-04-30T00:38:20.125Z,22.70
2023-04-30T00:43:25.904Z,12.68
2023-04-30T00:48:31.478Z,13.82
2023-04-30T00:53:38.466Z,14.35
2023-04-30T00:58:44.706Z,13.23
2023-04-30T01:03:50.076Z,16.73
2023-04-30T01:08:55.864Z,15.93
2023-04-30T01:14:10.802Z,14.80
2023-04-30T01:19:43.753Z,10.98
2023-04-30T01:25:00.794Z,15.40
2023-04-30T01:30:08.649Z,16.27
2023-04-30T01:35:14.123Z,18.88
2023-04-30T01:40:34.835Z,18.73
2023-04-30T01:45:43.543Z,18.33
2023-04-30T01:51:14.750Z,13.50
2023-04-30T01:56:34.473Z,16.50
2023-04-30T02:01:40.366Z,23.67
2023-04-30T02:06:45.859Z,18.77
2023-04-30T02:11:52.857Z,14.55
2023-04-30T02:16:58.615Z,15.30
2023-04-30T02:27:11.810Z,22.85
2023-04-30T02:32:26.470Z,18.58
2023-04-30T02:37:32.294Z,21.87
2023-04-30T02:42:38.019Z,22.23
2023-04-30T02:47:43.696Z,17.42
2023-04-30T02:52:52.270Z,22.55
2023-04-30T02:57:57.875Z,17.88
2023-04-30T03:03:03.533Z,19.50
2023-04-30T03:08:09.238Z,19.58
2023-04-30T03:13:14.508Z,15.98
2023-04-30T03:18:20.461Z,19.23
2023-04-30T03:23:29.394Z,16.35
2023-04-30T03:28:34.921Z,20.42
2023-04-30T03:33:40.736Z,18.35
2023-04-30T03:38:46.245Z,16.33
2023-04-30T03:43:54.411Z,16.92
2023-04-30T03:48:59.588Z,18.95
2023-04-30T03:54:05.239Z,14.80
2023-04-30T03:59:11.118Z,18.05
2023-04-30T04:04:17.457Z,20.95
2023-04-30T04:09:22.997Z,16.65
2023-04-30T04:14:28.442Z,18.23
2023-04-30T04:19:34.289Z,19.60
2023-04-30T04:24:39.891Z,17.48
2023-04-30T04:29:46.065Z,20.30
2023-04-30T04:34:52.340Z,18.35
2023-04-30T04:39:59.638Z,20.40
2023-04-30T04:45:05.484Z,17.52
2023-04-30T04:50:20.958Z,20.35
2023-04-30T04:55:26.884Z,16.50
2023-04-30T05:00:32.603Z,17.10
2023-04-30T05:05:38.070Z,25.90
2023-04-30T05:10:43.526Z,25.08
2023-04-30T05:15:52.082Z,23.02
2023-04-30T05:21:00.665Z,18.23
2023-04-30T05:26:06.926Z,20.38
2023-04-30T05:31:12.534Z,22.02
2023-04-30T05:36:18.350Z,19.02
2023-04-30T05:41:24.256Z,14.52
2023-04-30T05:51:35.308Z,21.50
2023-04-30T05:56:43.416Z,15.75
2023-04-30T06:01:48.649Z,23.98
2023-04-30T06:06:54.346Z,19.08
2023-04-30T06:12:00.120Z,23.27
2023-04-30T06:17:05.630Z,19.23
2023-04-30T06:22:11.056Z,19.20
2023-04-30T06:27:17.140Z,19.13
2023-04-30T06:32:23.022Z,28.35
2023-04-30T06:42:37.383Z,18.75
2023-04-30T06:47:44.220Z,31.13
2023-04-30T06:52:50.101Z,34.00
2023-04-30T06:57:55.896Z,29.65
2023-04-30T07:03:05.221Z,18.80
2023-04-30T07:08:10.776Z,20.15
2023-04-30T07:13:24.959Z,23.27
2023-04-30T07:30:15.437Z,32.95
2023-04-30T07:35:21.186Z,13.60
2023-04-30T07:40:35.479Z,14.45
2023-04-30T07:45:42.302Z,31.63
2023-04-30T07:55:58.242Z,19.05
2023-04-30T08:01:04.431Z,19.83
2023-04-30T08:06:10.416Z,22.67
2023-04-30T08:16:22.274Z,20.25
2023-04-30T08:21:29.564Z,17.02
2023-04-30T08:26:34.998Z,23.48
2023-04-30T08:31:40.546Z,20.00
2023-04-30T08:36:45.979Z,29.92
2023-04-30T08:41:59.281Z,25.73
2023-04-30T08:47:06.321Z,20.58
2023-04-30T08:52:12.560Z,33.55
2023-04-30T08:57:17.979Z,25.15
2023-04-30T09:02:23.661Z,18.17
2023-04-30T09:07:30.533Z,25.50
2023-04-30T09:12:36.749Z,23.95
2023-04-30T09:17:46.554Z,21.80
2023-04-30T09:23:09.765Z,26.40
2023-04-30T09:28:16.218Z,24.70
2023-04-30T09:33:22.052Z,32.53
2023-04-30T09:43:34.919Z,21.58
2023-04-30T09:48:48.457Z,24.70
2023-04-30T09:54:14.968Z,23.65
2023-04-30T09:59:24.468Z,29.13
2023-04-30T10:04:38.744Z,21.48
2023-04-30T10:09:53.658Z,36.42
2023-04-30T10:15:23.202Z,35.40
2023-04-30T10:20:31.892Z,18.63
2023-04-30T10:25:42.632Z,18.73
2023-04-30T10:30:49.089Z,35.53
2023-04-30T10:36:40.641Z,29.00
2023-04-30T10:41:50.987Z,25.98
2023-04-30T10:47:04.095Z,37.10
2023-04-30T10:52:09.485Z,29.98
2023-04-30T10:57:16.814Z,22.90
2023-04-30T11:02:22.962Z,37.38
2023-04-30T11:07:30.424Z,31.92
2023-04-30T11:12:35.666Z,21.48
2023-04-30T11:17:51.548Z,29.38
2023-04-30T11:23:24.926Z,30.15
2023-04-30T11:28:39.364Z,35.13
2023-04-30T11:33:44.975Z,31.63
2023-04-30T11:43:58.014Z,21.02
2023-04-30T11:49:04.045Z,30.52
2023-04-30T11:54:17.379Z,32.17
2023-04-30T11:59:22.647Z,19.90
2023-04-30T12:04:31.331Z,23.83
2023-04-30T12:10:01.027Z,28.10
2023-04-30T12:15:18.448Z,32.20
2023-04-30T12:20:25.431Z,28.77
2023-04-30T12:25:31.506Z,35.33
2023-04-30T12:30:37.400Z,25.75
2023-04-30T12:40:50.703Z,18.10
2023-04-30T12:51:08.086Z,29.92
2023-04-30T12:56:18.256Z,36.50
2023-04-30T13:01:27.779Z,34.55
2023-04-30T13:06:34.716Z,25.52
2023-04-30T13:11:42.710Z,34.88
2023-04-30T13:16:49.196Z,47.17
2023-04-30T13:21:55.067Z,30.15
2023-04-30T13:27:01.240Z,37.67
2023-04-30T13:37:11.818Z,28.25
2023-04-30T13:42:17.586Z,38.40
2023-04-30T13:47:23.239Z,29.90
2023-04-30T13:52:29.175Z,32.58
2023-04-30T13:57:34.846Z,24.58
2023-04-30T14:02:41.382Z,33.78
2023-04-30T14:07:46.884Z,37.53
2023-04-30T14:12:55.483Z,39.73
2023-04-30T14:18:01.872Z,31.15
2023-04-30T14:23:07.840Z,28.73
2023-04-30T14:33:18.581Z,31.73
2023-04-30T14:44:52.000Z,33.53
2023-04-30T15:06:11.132Z,43.60
2023-04-30T15:11:23.173Z,38.70
2023-04-30T15:30:50.601Z,37.45
2023-04-30T15:49:10.123Z,42.23
2023-04-30T15:54:16.286Z,29.65
2023-04-30T15:59:31.372Z,28.92
2023-04-30T16:05:08.643Z,32.47
2023-04-30T16:10:23.075Z,47.83
2023-04-30T16:16:07.289Z,37.38
2023-04-30T16:22:16.071Z,44.92
2023-04-30T16:28:01.909Z,50.33
2023-04-30T16:39:26.766Z,36.50
2023-04-30T16:45:00.153Z,43.65
2023-04-30T16:57:14.231Z,36.63
2023-04-30T17:02:23.250Z,48.70
2023-04-30T17:07:30.433Z,38.63
2023-04-30T17:24:29.781Z,34.97
2023-04-30T17:41:39.886Z,44.57
2023-04-30T17:46:58.226Z,44.13
2023-04-30T18:04:22.353Z,42.88
2023-04-30T18:15:35.572Z,35.08
2023-04-30T18:25:45.498Z,39.58
2023-04-30T18:30:51.316Z,52.17
2023-04-30T18:41:09.562Z,52.38
2023-04-30T18:46:15.488Z,43.40
2023-04-30T18:56:26.165Z,36.20
2023-04-30T19:06:36.885Z,35.35
2023-04-30T19:11:42.665Z,36.23
2023-04-30T19:16:48.944Z,35.65
2023-04-30T19:21:55.095Z,32.25
2023-04-30T19:32:05.962Z,40.92
2023-04-30T19:37:11.338Z,36.78
2023-04-30T19:42:17.968Z,33.80
2023-04-30T19:47:25.493Z,36.83
2023-04-30T19:52:30.800Z,33.28
2023-04-30T19:57:37.541Z,36.08
2023-04-30T20:02:42.886Z,39.47
2023-04-30T20:07:48.123Z,39.67
2023-04-30T20:12:57.159Z,30.40
2023-04-30T20:18:03.022Z,31.70
2023-04-30T20:28:24.062Z,36.70
2023-04-30T20:33:33.430Z,35.03
2023-04-30T20:38:39.077Z,33.42
2023-04-30T20:43:44.792Z,44.83
2023-04-30T20:48:50.883Z,45.42
2023-04-30T20:53:56.078Z,36.88
2023-04-30T20:59:01.791Z,39.23
2023-04-30T21:04:07.111Z,32.60
2023-04-30T21:09:13.981Z,41.53
2023-04-30T21:14:19.203Z,37.38
2023-04-30T21:19:25.234Z,42.60
2023-04-30T21:24:33.192Z,41.08
2023-04-30T21:29:39.013Z,35.55
2023-04-30T21:39:50.860Z,33.08
2023-04-30T21:45:06.531Z,31.70
2023-04-30T21:50:12.696Z,37.57
2023-04-30T21:55:18.165Z,39.50
2023-04-30T22:00:23.825Z,27.93
2023-04-30T22:05:29.371Z,38.85
2023-04-30T22:10:34.545Z,32.17
2023-04-30T22:15:47.752Z,30.63
2023-04-30T22:20:54.626Z,27.02
2023-04-30T22:31:05.445Z,33.25
2023-04-30T22:41:17.473Z,40.67
2023-04-30T22:46:31.452Z,39.35
2023-04-30T22:51:38.723Z,33.75
2023-04-30T22:56:43.906Z,34.90
2023-04-30T23:01:51.948Z,29.50
2023-04-30T23:06:58.101Z,34.70
2023-04-30T23:12:04.171Z,37.40
2023-04-30T23:22:15.549Z,34.58
2023-04-30T23:27:20.938Z,43.47
2023-04-30T23:32:26.539Z,39.83
2023-04-30T23:37:32.211Z,38.88
2023-04-30T23:42:37.937Z,38.75
2023-04-30T23:47:43.293Z,37.40
2023-04-30T23:52:49.284Z,35.63
